sensor_id;sensor_type;location;lat;lon;timestamp;temperature;humidity
21495;DHT22;10909;53.590;10.054;2023-05-07T00:02:22;12.50;72.20
21495;DHT22;10909;53.590;10.054;2023-05-07T00:04:48;12.50;72.10
21495;DHT22;10909;53.590;10.054;2023-05-07T00:07:14;12.50;72.10
21495;DHT22;10909;53.590;10.054;2023-05-07T00:09:40;12.50;72.10
21495;DHT22;10909;53.590;10.054;2023-05-07T00:12:06;12.50;72.10
21495;DHT22;10909;53.590;10.054;2023-05-07T00:14:32;12.50;72.00
21495;DHT22;10909;53.590;10.054;2023-05-07T00:16:58;12.50;72.00
21495;DHT22;10909;53.590;10.054;2023-05-07T00:19:26;12.50;72.00
21495;DHT22;10909;53.590;10.054;2023-05-07T00:21:52;12.50;72.10
21495;DHT22;10909;53.590;10.054;2023-05-07T00:24:19;12.50;72.10
21495;DHT22;10909;53.590;10.054;2023-05-07T00:26:45;12.50;72.20
21495;DHT22;10909;53.590;10.054;2023-05-07T00:29:11;12.60;72.30
21495;DHT22;10909;53.590;10.054;2023-05-07T00:31:36;12.60;72.20
21495;DHT22;10909;53.590;10.054;2023-05-07T00:34:02;12.60;72.10
21495;DHT22;10909;53.590;10.054;2023-05-07T00:36:28;12.60;71.90
21495;DHT22;10909;53.590;10.054;2023-05-07T00:38:56;12.60;72.10
21495;DHT22;10909;53.590;10.054;2023-05-07T00:41:21;12.60;72.00
21495;DHT22;10909;53.590;10.054;2023-05-07T00:43:47;12.60;71.90
21495;DHT22;10909;53.590;10.054;2023-05-07T00:46:13;12.60;71.90
21495;DHT22;10909;53.590;10.054;2023-05-07T00:48:41;12.60;72.00
21495;DHT22;10909;53.590;10.054;2023-05-07T00:51:06;12.60;71.90
21495;DHT22;10909;53.590;10.054;2023-05-07T00:53:32;12.60;71.90
21495;DHT22;10909;53.590;10.054;2023-05-07T00:55:58;12.60;71.90
21495;DHT22;10909;53.590;10.054;2023-05-07T00:58:24;12.60;71.90
21495;DHT22;10909;53.590;10.054;2023-05-07T01:00:50;12.70;72.00
21495;DHT22;10909;53.590;10.054;2023-05-07T01:03:16;12.60;71.80
21495;DHT22;10909;53.590;10.054;2023-05-07T01:05:42;12.70;71.90
21495;DHT22;10909;53.590;10.054;2023-05-07T01:08:08;12.70;71.90
21495;DHT22;10909;53.590;10.054;2023-05-07T01:10:34;12.70;71.80
21495;DHT22;10909;53.590;10.054;2023-05-07T01:13:01;12.70;71.70
21495;DHT22;10909;53.590;10.054;2023-05-07T01:15:27;12.70;71.80
21495;DHT22;10909;53.590;10.054;2023-05-07T01:17:53;12.70;71.70
21495;DHT22;10909;53.590;10.054;2023-05-07T01:20:19;12.70;71.70
21495;DHT22;10909;53.590;10.054;2023-05-07T01:22:46;12.60;71.50
21495;DHT22;10909;53.590;10.054;2023-05-07T01:25:12;12.60;71.60
21495;DHT22;10909;53.590;10.054;2023-05-07T01:27:39;12.60;71.60
21495;DHT22;10909;53.590;10.054;2023-05-07T01:30:05;12.60;71.60
21495;DHT22;10909;53.590;10.054;2023-05-07T01:32:48;12.50;71.70
21495;DHT22;10909;53.590;10.054;2023-05-07T01:35:19;12.50;71.70
21495;DHT22;10909;53.590;10.054;2023-05-07T01:37:47;12.50;71.70
21495;DHT22;10909;53.590;10.054;2023-05-07T01:40:13;12.50;71.70
21495;DHT22;10909;53.590;10.054;2023-05-07T01:42:39;12.50;71.80
21495;DHT22;10909;53.590;10.054;2023-05-07T01:45:06;12.50;71.90
21495;DHT22;10909;53.590;10.054;2023-05-07T01:47:32;12.50;71.70
21495;DHT22;10909;53.590;10.054;2023-05-07T01:49:58;12.40;71.70
21495;DHT22;10909;53.590;10.054;2023-05-07T01:52:24;12.40;71.70
21495;DHT22;10909;53.590;10.054;2023-05-07T01:54:52;12.40;71.80
21495;DHT22;10909;53.590;10.054;2023-05-07T01:57:18;12.40;71.80
21495;DHT22;10909;53.590;10.054;2023-05-07T01:59:43;12.40;71.80
21495;DHT22;10909;53.590;10.054;2023-05-07T02:02:09;12.40;71.80
21495;DHT22;10909;53.590;10.054;2023-05-07T02:04:35;12.40;71.90
21495;DHT22;10909;53.590;10.054;2023-05-07T02:07:02;12.40;71.90
21495;DHT22;10909;53.590;10.054;2023-05-07T02:09:29;12.40;71.90
21495;DHT22;10909;53.590;10.054;2023-05-07T02:11:56;12.40;71.90
21495;DHT22;10909;53.590;10.054;2023-05-07T02:14:21;12.40;71.90
21495;DHT22;10909;53.590;10.054;2023-05-07T02:16:47;12.50;72.00
21495;DHT22;10909;53.590;10.054;2023-05-07T02:19:12;12.50;72.30
21495;DHT22;10909;53.590;10.054;2023-05-07T02:21:38;12.40;71.90
21495;DHT22;10909;53.590;10.054;2023-05-07T02:24:06;12.40;71.90
21495;DHT22;10909;53.590;10.054;2023-05-07T02:26:31;12.40;71.80
21495;DHT22;10909;53.590;10.054;2023-05-07T02:28:57;12.40;72.00
21495;DHT22;10909;53.590;10.054;2023-05-07T02:31:23;12.40;72.10
21495;DHT22;10909;53.590;10.054;2023-05-07T02:33:48;12.40;72.10
21495;DHT22;10909;53.590;10.054;2023-05-07T02:36:14;12.40;72.10
21495;DHT22;10909;53.590;10.054;2023-05-07T02:38:40;12.40;72.20
21495;DHT22;10909;53.590;10.054;2023-05-07T02:41:05;12.40;72.10
21495;DHT22;10909;53.590;10.054;2023-05-07T02:43:31;12.40;72.10
21495;DHT22;10909;53.590;10.054;2023-05-07T02:46:01;12.40;72.10
21495;DHT22;10909;53.590;10.054;2023-05-07T02:48:28;12.50;72.10
21495;DHT22;10909;53.590;10.054;2023-05-07T02:50:53;12.60;72.20
21495;DHT22;10909;53.590;10.054;2023-05-07T02:53:19;12.40;72.00
21495;DHT22;10909;53.590;10.054;2023-05-07T02:55:45;12.40;72.80
21495;DHT22;10909;53.590;10.054;2023-05-07T02:58:10;12.50;72.00
21495;DHT22;10909;53.590;10.054;2023-05-07T03:00:36;12.40;71.90
21495;DHT22;10909;53.590;10.054;2023-05-07T03:03:02;12.40;71.90
21495;DHT22;10909;53.590;10.054;2023-05-07T03:05:27;12.40;72.00
21495;DHT22;10909;53.590;10.054;2023-05-07T03:07:53;12.40;72.00
21495;DHT22;10909;53.590;10.054;2023-05-07T03:10:19;12.40;72.00
21495;DHT22;10909;53.590;10.054;2023-05-07T03:12:44;12.30;72.00
21495;DHT22;10909;53.590;10.054;2023-05-07T03:15:10;12.30;72.00
21495;DHT22;10909;53.590;10.054;2023-05-07T03:17:38;12.30;72.10
21495;DHT22;10909;53.590;10.054;2023-05-07T03:20:04;12.30;72.10
21495;DHT22;10909;53.590;10.054;2023-05-07T03:22:30;12.30;72.20
21495;DHT22;10909;53.590;10.054;2023-05-07T03:24:56;12.30;72.20
21495;DHT22;10909;53.590;10.054;2023-05-07T03:27:21;12.20;72.20
21495;DHT22;10909;53.590;10.054;2023-05-07T03:29:47;12.30;72.30
21495;DHT22;10909;53.590;10.054;2023-05-07T03:32:13;12.30;72.30
21495;DHT22;10909;53.590;10.054;2023-05-07T03:34:38;12.30;72.20
21495;DHT22;10909;53.590;10.054;2023-05-07T03:37:04;12.30;72.20
21495;DHT22;10909;53.590;10.054;2023-05-07T03:39:30;12.30;72.20
21495;DHT22;10909;53.590;10.054;2023-05-07T03:41:56;12.30;72.20
21495;DHT22;10909;53.590;10.054;2023-05-07T03:44:22;12.30;72.20
21495;DHT22;10909;53.590;10.054;2023-05-07T03:46:47;12.30;72.20
21495;DHT22;10909;53.590;10.054;2023-05-07T03:49:13;12.30;72.20
21495;DHT22;10909;53.590;10.054;2023-05-07T03:51:39;12.30;72.10
21495;DHT22;10909;53.590;10.054;2023-05-07T03:54:04;12.30;72.10
21495;DHT22;10909;53.590;10.054;2023-05-07T03:56:30;12.30;72.00
21495;DHT22;10909;53.590;10.054;2023-05-07T03:58:56;12.30;72.10
21495;DHT22;10909;53.590;10.054;2023-05-07T04:01:23;12.40;72.10
21495;DHT22;10909;53.590;10.054;2023-05-07T04:03:49;12.40;72.10
21495;DHT22;10909;53.590;10.054;2023-05-07T04:06:16;12.40;72.00
21495;DHT22;10909;53.590;10.054;2023-05-07T04:08:42;12.40;72.00
21495;DHT22;10909;53.590;10.054;2023-05-07T04:11:08;12.40;71.90
21495;DHT22;10909;53.590;10.054;2023-05-07T04:13:34;12.40;71.90
21495;DHT22;10909;53.590;10.054;2023-05-07T04:16:01;12.40;71.80
21495;DHT22;10909;53.590;10.054;2023-05-07T04:18:27;12.40;71.80
21495;DHT22;10909;53.590;10.054;2023-05-07T04:20:53;12.40;71.80
21495;DHT22;10909;53.590;10.054;2023-05-07T04:23:19;12.40;71.70
21495;DHT22;10909;53.590;10.054;2023-05-07T04:25:45;12.40;71.80
21495;DHT22;10909;53.590;10.054;2023-05-07T04:28:11;12.40;71.70
21495;DHT22;10909;53.590;10.054;2023-05-07T04:30:37;12.40;71.70
21495;DHT22;10909;53.590;10.054;2023-05-07T04:33:02;12.40;71.70
21495;DHT22;10909;53.590;10.054;2023-05-07T04:35:28;12.40;71.50
21495;DHT22;10909;53.590;10.054;2023-05-07T04:37:54;12.40;71.50
21495;DHT22;10909;53.590;10.054;2023-05-07T04:40:19;12.40;71.40
21495;DHT22;10909;53.590;10.054;2023-05-07T04:42:48;12.40;71.40
21495;DHT22;10909;53.590;10.054;2023-05-07T04:45:13;12.40;71.40
21495;DHT22;10909;53.590;10.054;2023-05-07T04:47:39;12.40;71.40
21495;DHT22;10909;53.590;10.054;2023-05-07T04:50:06;12.40;72.10
21495;DHT22;10909;53.590;10.054;2023-05-07T04:52:33;12.50;71.40
21495;DHT22;10909;53.590;10.054;2023-05-07T04:55:01;12.50;71.30
21495;DHT22;10909;53.590;10.054;2023-05-07T04:57:27;12.50;71.30
21495;DHT22;10909;53.590;10.054;2023-05-07T04:59:54;12.50;71.10
21495;DHT22;10909;53.590;10.054;2023-05-07T05:02:20;12.50;71.10
21495;DHT22;10909;53.590;10.054;2023-05-07T05:04:46;12.50;71.10
21495;DHT22;10909;53.590;10.054;2023-05-07T05:07:11;12.50;71.10
21495;DHT22;10909;53.590;10.054;2023-05-07T05:09:37;12.50;71.20
21495;DHT22;10909;53.590;10.054;2023-05-07T05:12:03;12.50;71.30
21495;DHT22;10909;53.590;10.054;2023-05-07T05:14:29;12.50;71.30
21495;DHT22;10909;53.590;10.054;2023-05-07T05:16:55;12.50;71.40
21495;DHT22;10909;53.590;10.054;2023-05-07T05:19:20;12.50;71.40
21495;DHT22;10909;53.590;10.054;2023-05-07T05:21:46;12.60;71.50
21495;DHT22;10909;53.590;10.054;2023-05-07T05:24:12;12.60;71.40
21495;DHT22;10909;53.590;10.054;2023-05-07T05:26:37;12.60;71.30
21495;DHT22;10909;53.590;10.054;2023-05-07T05:29:03;12.60;71.30
21495;DHT22;10909;53.590;10.054;2023-05-07T05:31:29;12.60;71.30
21495;DHT22;10909;53.590;10.054;2023-05-07T05:33:55;12.60;71.40
21495;DHT22;10909;53.590;10.054;2023-05-07T05:36:20;12.60;71.30
21495;DHT22;10909;53.590;10.054;2023-05-07T05:38:46;12.60;71.30
21495;DHT22;10909;53.590;10.054;2023-05-07T05:41:12;12.60;71.20
21495;DHT22;10909;53.590;10.054;2023-05-07T05:43:37;12.60;71.20
21495;DHT22;10909;53.590;10.054;2023-05-07T05:46:03;12.60;71.30
21495;DHT22;10909;53.590;10.054;2023-05-07T05:48:29;12.70;71.40
21495;DHT22;10909;53.590;10.054;2023-05-07T05:50:55;12.60;71.30
21495;DHT22;10909;53.590;10.054;2023-05-07T05:53:21;12.70;71.40
21495;DHT22;10909;53.590;10.054;2023-05-07T05:55:47;12.70;71.30
21495;DHT22;10909;53.590;10.054;2023-05-07T05:58:13;12.70;71.30
21495;DHT22;10909;53.590;10.054;2023-05-07T06:00:40;12.70;71.20
21495;DHT22;10909;53.590;10.054;2023-05-07T06:03:06;12.80;71.20
21495;DHT22;10909;53.590;10.054;2023-05-07T06:05:31;12.80;71.10
21495;DHT22;10909;53.590;10.054;2023-05-07T06:07:57;12.80;71.10
21495;DHT22;10909;53.590;10.054;2023-05-07T06:10:23;12.80;71.10
21495;DHT22;10909;53.590;10.054;2023-05-07T06:12:51;12.80;71.00
21495;DHT22;10909;53.590;10.054;2023-05-07T06:15:16;12.90;71.00
21495;DHT22;10909;53.590;10.054;2023-05-07T06:17:42;12.90;70.90
21495;DHT22;10909;53.590;10.054;2023-05-07T06:20:08;12.90;70.80
21495;DHT22;10909;53.590;10.054;2023-05-07T06:22:34;12.90;70.70
21495;DHT22;10909;53.590;10.054;2023-05-07T06:24:59;12.90;70.60
21495;DHT22;10909;53.590;10.054;2023-05-07T06:27:25;12.90;70.70
21495;DHT22;10909;53.590;10.054;2023-05-07T06:29:53;13.00;70.80
21495;DHT22;10909;53.590;10.054;2023-05-07T06:32:19;13.00;70.80
21495;DHT22;10909;53.590;10.054;2023-05-07T06:34:44;13.00;70.60
21495;DHT22;10909;53.590;10.054;2023-05-07T06:37:10;13.00;70.50
21495;DHT22;10909;53.590;10.054;2023-05-07T06:39:36;13.00;70.50
21495;DHT22;10909;53.590;10.054;2023-05-07T06:42:02;13.00;70.50
21495;DHT22;10909;53.590;10.054;2023-05-07T06:44:30;13.00;70.40
21495;DHT22;10909;53.590;10.054;2023-05-07T06:46:56;13.00;70.40
21495;DHT22;10909;53.590;10.054;2023-05-07T06:49:22;13.00;70.30
21495;DHT22;10909;53.590;10.054;2023-05-07T06:51:48;13.10;70.50
21495;DHT22;10909;53.590;10.054;2023-05-07T06:54:16;13.10;70.60
21495;DHT22;10909;53.590;10.054;2023-05-07T06:56:42;13.10;70.60
21495;DHT22;10909;53.590;10.054;2023-05-07T06:59:08;13.10;70.50
21495;DHT22;10909;53.590;10.054;2023-05-07T07:01:34;13.20;70.50
21495;DHT22;10909;53.590;10.054;2023-05-07T07:03:59;13.20;70.40
21495;DHT22;10909;53.590;10.054;2023-05-07T07:06:25;13.20;70.30
21495;DHT22;10909;53.590;10.054;2023-05-07T07:08:52;13.20;70.20
21495;DHT22;10909;53.590;10.054;2023-05-07T07:11:18;13.20;70.20
21495;DHT22;10909;53.590;10.054;2023-05-07T07:13:44;13.30;70.40
21495;DHT22;10909;53.590;10.054;2023-05-07T07:16:09;13.30;71.10
21495;DHT22;10909;53.590;10.054;2023-05-07T07:18:40;13.30;70.10
21495;DHT22;10909;53.590;10.054;2023-05-07T07:21:05;13.30;70.10
21495;DHT22;10909;53.590;10.054;2023-05-07T07:23:31;13.40;70.10
21495;DHT22;10909;53.590;10.054;2023-05-07T07:25:57;13.40;70.00
21495;DHT22;10909;53.590;10.054;2023-05-07T07:28:26;13.40;70.00
21495;DHT22;10909;53.590;10.054;2023-05-07T07:30:51;13.40;70.80
21495;DHT22;10909;53.590;10.054;2023-05-07T07:33:17;13.40;69.90
21495;DHT22;10909;53.590;10.054;2023-05-07T07:35:43;13.50;70.00
21495;DHT22;10909;53.590;10.054;2023-05-07T07:38:09;13.50;69.90
21495;DHT22;10909;53.590;10.054;2023-05-07T07:40:35;13.50;69.70
21495;DHT22;10909;53.590;10.054;2023-05-07T07:43:02;13.60;69.50
21495;DHT22;10909;53.590;10.054;2023-05-07T07:45:28;13.60;69.60
21495;DHT22;10909;53.590;10.054;2023-05-07T07:47:57;13.60;69.50
21495;DHT22;10909;53.590;10.054;2023-05-07T07:50:23;13.70;69.50
21495;DHT22;10909;53.590;10.054;2023-05-07T07:52:49;13.70;70.40
21495;DHT22;10909;53.590;10.054;2023-05-07T07:55:15;13.80;69.50
21495;DHT22;10909;53.590;10.054;2023-05-07T07:57:46;13.80;69.10
21495;DHT22;10909;53.590;10.054;2023-05-07T08:00:15;13.80;69.20
21495;DHT22;10909;53.590;10.054;2023-05-07T08:02:42;13.90;69.10
21495;DHT22;10909;53.590;10.054;2023-05-07T08:05:08;13.90;69.00
21495;DHT22;10909;53.590;10.054;2023-05-07T08:07:33;13.90;69.20
21495;DHT22;10909;53.590;10.054;2023-05-07T08:10:03;13.90;68.80
21495;DHT22;10909;53.590;10.054;2023-05-07T08:12:29;14.00;68.80
21495;DHT22;10909;53.590;10.054;2023-05-07T08:14:56;14.00;68.70
21495;DHT22;10909;53.590;10.054;2023-05-07T08:17:22;14.00;68.90
21495;DHT22;10909;53.590;10.054;2023-05-07T08:19:48;14.00;68.80
21495;DHT22;10909;53.590;10.054;2023-05-07T08:22:14;14.00;68.70
21495;DHT22;10909;53.590;10.054;2023-05-07T08:24:40;14.10;68.60
21495;DHT22;10909;53.590;10.054;2023-05-07T08:27:06;14.10;68.50
21495;DHT22;10909;53.590;10.054;2023-05-07T08:29:32;14.10;68.80
21495;DHT22;10909;53.590;10.054;2023-05-07T08:31:57;14.20;68.70
21495;DHT22;10909;53.590;10.054;2023-05-07T08:34:23;14.20;68.50
21495;DHT22;10909;53.590;10.054;2023-05-07T08:36:49;14.20;68.60
21495;DHT22;10909;53.590;10.054;2023-05-07T08:39:17;14.20;68.40
21495;DHT22;10909;53.590;10.054;2023-05-07T08:41:44;14.30;68.10
21495;DHT22;10909;53.590;10.054;2023-05-07T08:44:14;14.30;68.00
21495;DHT22;10909;53.590;10.054;2023-05-07T08:46:44;14.30;67.90
21495;DHT22;10909;53.590;10.054;2023-05-07T08:49:12;14.30;67.60
21495;DHT22;10909;53.590;10.054;2023-05-07T08:51:38;14.30;67.70
21495;DHT22;10909;53.590;10.054;2023-05-07T08:54:05;14.30;67.70
21495;DHT22;10909;53.590;10.054;2023-05-07T08:56:30;14.30;67.70
21495;DHT22;10909;53.590;10.054;2023-05-07T08:58:56;14.40;67.70
21495;DHT22;10909;53.590;10.054;2023-05-07T09:01:24;14.40;67.00
21495;DHT22;10909;53.590;10.054;2023-05-07T09:03:51;14.40;67.60
21495;DHT22;10909;53.590;10.054;2023-05-07T09:06:17;14.50;67.50
21495;DHT22;10909;53.590;10.054;2023-05-07T09:08:52;14.50;67.40
21495;DHT22;10909;53.590;10.054;2023-05-07T09:11:22;14.50;67.40
21495;DHT22;10909;53.590;10.054;2023-05-07T09:13:54;14.60;67.60
21495;DHT22;10909;53.590;10.054;2023-05-07T09:16:23;14.60;67.30
21495;DHT22;10909;53.590;10.054;2023-05-07T09:18:58;14.70;67.60
21495;DHT22;10909;53.590;10.054;2023-05-07T09:21:26;14.80;67.50
21495;DHT22;10909;53.590;10.054;2023-05-07T09:23:54;14.80;67.20
21495;DHT22;10909;53.590;10.054;2023-05-07T09:26:24;14.90;66.90
21495;DHT22;10909;53.590;10.054;2023-05-07T09:28:50;14.90;66.80
21495;DHT22;10909;53.590;10.054;2023-05-07T09:31:16;14.90;66.60
21495;DHT22;10909;53.590;10.054;2023-05-07T09:33:46;15.00;66.90
21495;DHT22;10909;53.590;10.054;2023-05-07T09:36:12;15.00;66.50
21495;DHT22;10909;53.590;10.054;2023-05-07T09:38:38;15.00;65.90
21495;DHT22;10909;53.590;10.054;2023-05-07T09:41:06;15.10;66.30
21495;DHT22;10909;53.590;10.054;2023-05-07T09:43:35;15.10;66.30
21495;DHT22;10909;53.590;10.054;2023-05-07T09:46:22;15.10;65.90
21495;DHT22;10909;53.590;10.054;2023-05-07T09:48:53;15.10;65.70
21495;DHT22;10909;53.590;10.054;2023-05-07T09:51:41;15.10;65.30
21495;DHT22;10909;53.590;10.054;2023-05-07T09:54:10;15.10;65.30
21495;DHT22;10909;53.590;10.054;2023-05-07T09:56:36;15.10;65.40
21495;DHT22;10909;53.590;10.054;2023-05-07T09:59:03;15.10;64.90
21495;DHT22;10909;53.590;10.054;2023-05-07T10:01:32;15.10;65.40
21495;DHT22;10909;53.590;10.054;2023-05-07T10:04:01;15.10;65.00
21495;DHT22;10909;53.590;10.054;2023-05-07T10:06:30;15.20;66.30
21495;DHT22;10909;53.590;10.054;2023-05-07T10:08:56;15.20;65.50
21495;DHT22;10909;53.590;10.054;2023-05-07T10:11:22;15.20;65.20
21495;DHT22;10909;53.590;10.054;2023-05-07T10:13:48;15.30;65.10
21495;DHT22;10909;53.590;10.054;2023-05-07T10:16:15;15.30;65.00
21495;DHT22;10909;53.590;10.054;2023-05-07T10:18:43;15.30;65.20
21495;DHT22;10909;53.590;10.054;2023-05-07T10:21:19;15.40;64.80
21495;DHT22;10909;53.590;10.054;2023-05-07T10:23:50;15.40;64.90
21495;DHT22;10909;53.590;10.054;2023-05-07T10:26:18;15.50;64.70
21495;DHT22;10909;53.590;10.054;2023-05-07T10:28:49;15.50;64.50
21495;DHT22;10909;53.590;10.054;2023-05-07T10:33:42;15.60;64.40
21495;DHT22;10909;53.590;10.054;2023-05-07T10:36:09;15.60;64.30
21495;DHT22;10909;53.590;10.054;2023-05-07T10:38:35;15.70;64.30
21495;DHT22;10909;53.590;10.054;2023-05-07T10:41:01;15.70;64.30
21495;DHT22;10909;53.590;10.054;2023-05-07T10:43:43;15.70;64.10
21495;DHT22;10909;53.590;10.054;2023-05-07T10:46:19;15.80;63.70
21495;DHT22;10909;53.590;10.054;2023-05-07T10:51:29;15.80;63.60
21495;DHT22;10909;53.590;10.054;2023-05-07T10:54:19;15.80;63.60
21495;DHT22;10909;53.590;10.054;2023-05-07T10:56:45;15.80;63.50
21495;DHT22;10909;53.590;10.054;2023-05-07T11:01:53;15.90;63.30
21495;DHT22;10909;53.590;10.054;2023-05-07T11:04:20;16.00;63.90
21495;DHT22;10909;53.590;10.054;2023-05-07T11:10:03;16.10;63.40
21495;DHT22;10909;53.590;10.054;2023-05-07T11:15:09;16.30;63.50
21495;DHT22;10909;53.590;10.054;2023-05-07T11:17:53;16.40;63.70
21495;DHT22;10909;53.590;10.054;2023-05-07T11:20:19;16.50;62.90
21495;DHT22;10909;53.590;10.054;2023-05-07T11:22:46;16.60;63.40
21495;DHT22;10909;53.590;10.054;2023-05-07T11:25:17;16.60;63.30
21495;DHT22;10909;53.590;10.054;2023-05-07T11:27:45;16.80;62.90
21495;DHT22;10909;53.590;10.054;2023-05-07T11:30:17;16.80;62.90
21495;DHT22;10909;53.590;10.054;2023-05-07T11:32:47;16.90;62.60
21495;DHT22;10909;53.590;10.054;2023-05-07T11:35:14;17.00;62.30
21495;DHT22;10909;53.590;10.054;2023-05-07T11:37:40;17.10;62.30
21495;DHT22;10909;53.590;10.054;2023-05-07T11:40:09;17.20;62.20
21495;DHT22;10909;53.590;10.054;2023-05-07T11:42:39;17.30;62.00
21495;DHT22;10909;53.590;10.054;2023-05-07T11:45:07;17.40;61.80
21495;DHT22;10909;53.590;10.054;2023-05-07T11:47:33;17.50;61.80
21495;DHT22;10909;53.590;10.054;2023-05-07T11:50:04;17.60;60.50
21495;DHT22;10909;53.590;10.054;2023-05-07T11:52:31;17.70;61.10
21495;DHT22;10909;53.590;10.054;2023-05-07T11:54:59;17.80;61.70
21495;DHT22;10909;53.590;10.054;2023-05-07T11:57:33;17.90;60.00
21495;DHT22;10909;53.590;10.054;2023-05-07T11:59:59;17.90;60.40
21495;DHT22;10909;53.590;10.054;2023-05-07T12:02:27;17.90;59.30
21495;DHT22;10909;53.590;10.054;2023-05-07T12:04:54;18.00;59.90
21495;DHT22;10909;53.590;10.054;2023-05-07T12:07:20;18.00;60.00
21495;DHT22;10909;53.590;10.054;2023-05-07T12:09:47;18.10;59.90
21495;DHT22;10909;53.590;10.054;2023-05-07T12:12:13;18.10;59.80
21495;DHT22;10909;53.590;10.054;2023-05-07T12:14:45;18.20;59.70
21495;DHT22;10909;53.590;10.054;2023-05-07T12:17:13;18.30;59.10
21495;DHT22;10909;53.590;10.054;2023-05-07T12:19:41;18.40;59.70
21495;DHT22;10909;53.590;10.054;2023-05-07T12:22:08;18.40;59.20
21495;DHT22;10909;53.590;10.054;2023-05-07T12:24:48;18.60;59.00
21495;DHT22;10909;53.590;10.054;2023-05-07T12:27:16;18.60;58.20
21495;DHT22;10909;53.590;10.054;2023-05-07T12:29:49;18.60;58.60
21495;DHT22;10909;53.590;10.054;2023-05-07T12:32:19;18.70;58.30
21495;DHT22;10909;53.590;10.054;2023-05-07T12:34:45;18.70;58.00
21495;DHT22;10909;53.590;10.054;2023-05-07T12:37:11;18.80;58.40
21495;DHT22;10909;53.590;10.054;2023-05-07T12:39:38;18.80;58.50
21495;DHT22;10909;53.590;10.054;2023-05-07T12:42:15;18.90;58.70
21495;DHT22;10909;53.590;10.054;2023-05-07T12:44:43;19.00;58.30
21495;DHT22;10909;53.590;10.054;2023-05-07T12:47:10;19.10;58.40
21495;DHT22;10909;53.590;10.054;2023-05-07T12:49:36;19.30;58.40
21495;DHT22;10909;53.590;10.054;2023-05-07T12:52:05;19.40;58.20
21495;DHT22;10909;53.590;10.054;2023-05-07T12:54:37;19.50;57.90
21495;DHT22;10909;53.590;10.054;2023-05-07T12:57:05;19.70;58.10
21495;DHT22;10909;53.590;10.054;2023-05-07T12:59:32;19.90;58.10
21495;DHT22;10909;53.590;10.054;2023-05-07T13:01:58;20.00;58.00
21495;DHT22;10909;53.590;10.054;2023-05-07T13:04:27;20.20;57.40
21495;DHT22;10909;53.590;10.054;2023-05-07T13:06:52;20.30;57.10
21495;DHT22;10909;53.590;10.054;2023-05-07T13:09:18;20.50;57.20
21495;DHT22;10909;53.590;10.054;2023-05-07T13:11:44;20.60;56.30
21495;DHT22;10909;53.590;10.054;2023-05-07T13:14:09;20.70;56.00
21495;DHT22;10909;53.590;10.054;2023-05-07T13:16:36;20.70;55.40
21495;DHT22;10909;53.590;10.054;2023-05-07T13:19:02;20.90;55.90
21495;DHT22;10909;53.590;10.054;2023-05-07T13:21:28;21.10;56.10
21495;DHT22;10909;53.590;10.054;2023-05-07T13:23:53;21.20;55.20
21495;DHT22;10909;53.590;10.054;2023-05-07T13:26:19;21.30;55.40
21495;DHT22;10909;53.590;10.054;2023-05-07T13:28:45;21.40;54.80
21495;DHT22;10909;53.590;10.054;2023-05-07T13:31:12;21.50;54.70
21495;DHT22;10909;53.590;10.054;2023-05-07T13:33:39;21.70;53.80
21495;DHT22;10909;53.590;10.054;2023-05-07T13:36:06;21.80;54.50
21495;DHT22;10909;53.590;10.054;2023-05-07T13:38:32;22.10;53.80
21495;DHT22;10909;53.590;10.054;2023-05-07T13:40:57;22.30;53.80
21495;DHT22;10909;53.590;10.054;2023-05-07T13:43:24;22.70;53.90
21495;DHT22;10909;53.590;10.054;2023-05-07T13:45:49;23.00;53.90
21495;DHT22;10909;53.590;10.054;2023-05-07T13:48:15;23.50;53.70
21495;DHT22;10909;53.590;10.054;2023-05-07T13:50:42;23.90;53.50
21495;DHT22;10909;53.590;10.054;2023-05-07T13:53:08;24.40;52.80
21495;DHT22;10909;53.590;10.054;2023-05-07T13:55:34;24.80;50.90
21495;DHT22;10909;53.590;10.054;2023-05-07T13:58:01;25.20;50.70
21495;DHT22;10909;53.590;10.054;2023-05-07T14:00:28;25.40;49.60
21495;DHT22;10909;53.590;10.054;2023-05-07T14:02:55;25.70;48.00
21495;DHT22;10909;53.590;10.054;2023-05-07T14:05:21;25.90;48.20
21495;DHT22;10909;53.590;10.054;2023-05-07T14:07:55;26.10;48.50
21495;DHT22;10909;53.590;10.054;2023-05-07T14:10:22;26.30;48.40
21495;DHT22;10909;53.590;10.054;2023-05-07T14:12:47;26.60;47.60
21495;DHT22;10909;53.590;10.054;2023-05-07T14:15:13;26.80;46.20
21495;DHT22;10909;53.590;10.054;2023-05-07T14:17:39;27.00;45.50
21495;DHT22;10909;53.590;10.054;2023-05-07T14:20:05;27.30;45.70
21495;DHT22;10909;53.590;10.054;2023-05-07T14:22:32;27.30;44.20
21495;DHT22;10909;53.590;10.054;2023-05-07T14:24:58;27.30;44.10
21495;DHT22;10909;53.590;10.054;2023-05-07T14:27:24;27.30;43.10
21495;DHT22;10909;53.590;10.054;2023-05-07T14:29:49;27.30;43.10
21495;DHT22;10909;53.590;10.054;2023-05-07T14:32:20;27.20;42.70
21495;DHT22;10909;53.590;10.054;2023-05-07T14:34:46;27.10;43.00
21495;DHT22;10909;53.590;10.054;2023-05-07T14:37:12;27.10;42.80
21495;DHT22;10909;53.590;10.054;2023-05-07T14:39:38;27.10;43.40
21495;DHT22;10909;53.590;10.054;2023-05-07T14:42:04;27.30;42.30
21495;DHT22;10909;53.590;10.054;2023-05-07T14:44:30;27.40;42.00
21495;DHT22;10909;53.590;10.054;2023-05-07T14:46:56;27.40;41.80
21495;DHT22;10909;53.590;10.054;2023-05-07T14:49:22;27.20;41.10
21495;DHT22;10909;53.590;10.054;2023-05-07T14:51:49;27.10;40.90
21495;DHT22;10909;53.590;10.054;2023-05-07T14:54:15;26.80;40.40
21495;DHT22;10909;53.590;10.054;2023-05-07T14:56:41;26.50;40.60
21495;DHT22;10909;53.590;10.054;2023-05-07T14:59:08;26.30;40.70
21495;DHT22;10909;53.590;10.054;2023-05-07T15:01:35;26.10;40.70
21495;DHT22;10909;53.590;10.054;2023-05-07T15:04:02;25.70;40.50
21495;DHT22;10909;53.590;10.054;2023-05-07T15:06:28;25.50;39.90
21495;DHT22;10909;53.590;10.054;2023-05-07T15:08:54;25.20;40.80
21495;DHT22;10909;53.590;10.054;2023-05-07T15:11:20;25.20;41.80
21495;DHT22;10909;53.590;10.054;2023-05-07T15:13:46;25.20;42.10
21495;DHT22;10909;53.590;10.054;2023-05-07T15:16:12;25.30;41.70
21495;DHT22;10909;53.590;10.054;2023-05-07T15:18:38;25.40;41.60
21495;DHT22;10909;53.590;10.054;2023-05-07T15:21:04;25.30;41.10
21495;DHT22;10909;53.590;10.054;2023-05-07T15:23:30;25.30;41.70
21495;DHT22;10909;53.590;10.054;2023-05-07T15:25:56;25.20;41.80
21495;DHT22;10909;53.590;10.054;2023-05-07T15:28:21;25.20;42.00